Terminal Aerodrome Forecast
Issued by NWS Springfield, MO

Home | Current Version | Previous Version | Text Only | Print | Product List | Glossary On
Versions: 1 2 3 4 5 6 7 8 9 10 11 12 13 14 15 16 17 18 19 20 21 22 23 24
559
FTUS43 KSGF 282046 AAB
TAFSGF
TAF AMD
KSGF 282046Z 2821/2918 11010KT P6SM SCT030
     FM290300 11010KT P6SM BKN035
     FM290500 11012KT P6SM VCSH OVC030
     FM290800 12013G21KT 6SM -SHRA VCTS OVC008CB
     FM291200 13013G23KT 5SM -SHRA OVC008
     FM291700 13014G25KT P6SM -SHRA OVC020=

USA.gov is the U.S. government's official web portal to all federal, state and local government web resources and services.